sensor_id;sensor_type;location;lat;lon;timestamp;P1;durP1;ratioP1;P2;durP2;ratioP2
60026;SDS011;45891;53.006;6.512;2023-06-04T00:00:05;13.00;;;3.40;;
60026;SDS011;45891;53.006;6.512;2023-06-04T00:02:32;10.18;;;3.08;;
60026;SDS011;45891;53.006;6.512;2023-06-04T00:04:58;10.45;;;3.30;;
60026;SDS011;45891;53.006;6.512;2023-06-04T00:07:24;12.73;;;3.40;;
60026;SDS011;45891;53.006;6.512;2023-06-04T00:09:52;10.43;;;3.30;;
60026;SDS011;45891;53.006;6.512;2023-06-04T00:12:18;11.27;;;3.20;;
60026;SDS011;45891;53.006;6.512;2023-06-04T00:14:44;10.27;;;3.53;;
60026;SDS011;45891;53.006;6.512;2023-06-04T00:17:11;12.48;;;3.55;;
60026;SDS011;45891;53.006;6.512;2023-06-04T00:19:38;14.32;;;3.70;;
60026;SDS011;45891;53.006;6.512;2023-06-04T00:22:05;12.65;;;3.90;;
60026;SDS011;45891;53.006;6.512;2023-06-04T00:24:32;13.40;;;3.60;;
60026;SDS011;45891;53.006;6.512;2023-06-04T00:27:00;11.52;;;3.83;;
60026;SDS011;45891;53.006;6.512;2023-06-04T00:29:26;11.55;;;3.47;;
60026;SDS011;45891;53.006;6.512;2023-06-04T00:31:52;12.95;;;3.83;;
60026;SDS011;45891;53.006;6.512;2023-06-04T00:34:18;10.00;;;3.40;;
60026;SDS011;45891;53.006;6.512;2023-06-04T00:36:45;12.77;;;3.60;;
60026;SDS011;45891;53.006;6.512;2023-06-04T00:39:11;12.88;;;3.50;;
60026;SDS011;45891;53.006;6.512;2023-06-04T00:41:37;12.93;;;3.75;;
60026;SDS011;45891;53.006;6.512;2023-06-04T00:44:03;13.23;;;3.40;;
60026;SDS011;45891;53.006;6.512;2023-06-04T00:46:32;13.23;;;3.28;;
60026;SDS011;45891;53.006;6.512;2023-06-04T00:49:01;13.20;;;3.70;;
60026;SDS011;45891;53.006;6.512;2023-06-04T00:51:27;11.75;;;3.92;;
60026;SDS011;45891;53.006;6.512;2023-06-04T00:53:55;14.52;;;3.88;;
60026;SDS011;45891;53.006;6.512;2023-06-04T00:56:22;15.40;;;4.10;;
60026;SDS011;45891;53.006;6.512;2023-06-04T00:58:48;12.50;;;4.32;;
60026;SDS011;45891;53.006;6.512;2023-06-04T01:03:45;13.45;;;4.28;;
60026;SDS011;45891;53.006;6.512;2023-06-04T01:08:50;12.13;;;4.53;;
60026;SDS011;45891;53.006;6.512;2023-06-04T01:11:35;14.82;;;3.97;;
60026;SDS011;45891;53.006;6.512;2023-06-04T01:14:03;13.57;;;4.10;;
60026;SDS011;45891;53.006;6.512;2023-06-04T01:16:34;15.25;;;4.75;;
60026;SDS011;45891;53.006;6.512;2023-06-04T01:19:18;14.60;;;4.80;;
60026;SDS011;45891;53.006;6.512;2023-06-04T01:22:17;16.23;;;4.53;;
60026;SDS011;45891;53.006;6.512;2023-06-04T01:24:52;15.40;;;4.40;;
60026;SDS011;45891;53.006;6.512;2023-06-04T01:27:21;13.60;;;4.47;;
60026;SDS011;45891;53.006;6.512;2023-06-04T01:29:48;14.88;;;4.95;;
60026;SDS011;45891;53.006;6.512;2023-06-04T01:32:15;13.57;;;4.93;;
60026;SDS011;45891;53.006;6.512;2023-06-04T01:34:46;12.95;;;4.45;;
60026;SDS011;45891;53.006;6.512;2023-06-04T01:37:12;13.95;;;4.72;;
60026;SDS011;45891;53.006;6.512;2023-06-04T01:39:40;13.80;;;4.68;;
60026;SDS011;45891;53.006;6.512;2023-06-04T01:42:08;12.13;;;4.53;;
60026;SDS011;45891;53.006;6.512;2023-06-04T01:44:34;16.55;;;4.90;;
60026;SDS011;45891;53.006;6.512;2023-06-04T01:47:00;12.77;;;4.75;;
60026;SDS011;45891;53.006;6.512;2023-06-04T01:49:26;11.77;;;4.28;;
60026;SDS011;45891;53.006;6.512;2023-06-04T01:51:52;15.73;;;4.97;;
60026;SDS011;45891;53.006;6.512;2023-06-04T01:54:18;12.07;;;4.55;;
60026;SDS011;45891;53.006;6.512;2023-06-04T01:56:45;12.95;;;4.93;;
60026;SDS011;45891;53.006;6.512;2023-06-04T01:59:11;11.32;;;4.13;;
60026;SDS011;45891;53.006;6.512;2023-06-04T02:01:38;13.65;;;4.85;;
60026;SDS011;45891;53.006;6.512;2023-06-04T02:04:04;15.85;;;5.55;;
60026;SDS011;45891;53.006;6.512;2023-06-04T02:06:30;16.65;;;5.30;;
60026;SDS011;45891;53.006;6.512;2023-06-04T02:08:56;14.43;;;5.10;;
60026;SDS011;45891;53.006;6.512;2023-06-04T02:11:22;16.90;;;5.57;;
60026;SDS011;45891;53.006;6.512;2023-06-04T02:13:48;12.80;;;5.10;;
60026;SDS011;45891;53.006;6.512;2023-06-04T02:16:15;12.20;;;5.30;;
60026;SDS011;45891;53.006;6.512;2023-06-04T02:18:41;17.15;;;5.35;;
60026;SDS011;45891;53.006;6.512;2023-06-04T02:21:07;17.20;;;5.72;;
60026;SDS011;45891;53.006;6.512;2023-06-04T02:23:33;20.83;;;6.35;;
60026;SDS011;45891;53.006;6.512;2023-06-04T02:25:59;16.17;;;6.45;;
60026;SDS011;45891;53.006;6.512;2023-06-04T02:28:25;12.75;;;4.95;;
60026;SDS011;45891;53.006;6.512;2023-06-04T02:30:52;13.18;;;5.07;;
60026;SDS011;45891;53.006;6.512;2023-06-04T02:33:18;15.25;;;5.70;;
60026;SDS011;45891;53.006;6.512;2023-06-04T02:35:46;15.23;;;5.07;;
60026;SDS011;45891;53.006;6.512;2023-06-04T02:38:12;16.38;;;5.38;;
60026;SDS011;45891;53.006;6.512;2023-06-04T02:40:38;16.13;;;5.35;;
60026;SDS011;45891;53.006;6.512;2023-06-04T02:43:04;17.85;;;6.18;;
60026;SDS011;45891;53.006;6.512;2023-06-04T02:45:31;17.15;;;6.07;;
60026;SDS011;45891;53.006;6.512;2023-06-04T02:47:57;15.48;;;5.93;;
60026;SDS011;45891;53.006;6.512;2023-06-04T02:50:24;17.58;;;5.75;;
60026;SDS011;45891;53.006;6.512;2023-06-04T02:52:50;22.63;;;7.10;;
60026;SDS011;45891;53.006;6.512;2023-06-04T02:55:16;18.02;;;6.80;;
60026;SDS011;45891;53.006;6.512;2023-06-04T02:57:42;17.90;;;6.18;;
60026;SDS011;45891;53.006;6.512;2023-06-04T03:00:09;16.85;;;5.82;;
60026;SDS011;45891;53.006;6.512;2023-06-04T03:02:47;22.08;;;7.43;;
60026;SDS011;45891;53.006;6.512;2023-06-04T03:05:14;17.90;;;6.72;;
60026;SDS011;45891;53.006;6.512;2023-06-04T03:07:43;16.50;;;6.20;;
60026;SDS011;45891;53.006;6.512;2023-06-04T03:10:11;16.10;;;6.25;;
60026;SDS011;45891;53.006;6.512;2023-06-04T03:12:38;16.85;;;5.72;;
60026;SDS011;45891;53.006;6.512;2023-06-04T03:15:05;14.88;;;6.85;;
60026;SDS011;45891;53.006;6.512;2023-06-04T03:17:31;16.98;;;6.50;;
60026;SDS011;45891;53.006;6.512;2023-06-04T03:19:58;18.02;;;7.07;;
60026;SDS011;45891;53.006;6.512;2023-06-04T03:22:24;17.83;;;7.22;;
60026;SDS011;45891;53.006;6.512;2023-06-04T03:24:51;16.15;;;7.22;;
60026;SDS011;45891;53.006;6.512;2023-06-04T03:27:18;20.88;;;8.10;;
60026;SDS011;45891;53.006;6.512;2023-06-04T03:29:45;18.00;;;7.68;;
60026;SDS011;45891;53.006;6.512;2023-06-04T03:32:12;19.98;;;7.93;;
60026;SDS011;45891;53.006;6.512;2023-06-04T03:34:38;18.10;;;8.00;;
60026;SDS011;45891;53.006;6.512;2023-06-04T03:37:04;17.17;;;7.85;;
60026;SDS011;45891;53.006;6.512;2023-06-04T03:39:31;15.38;;;7.43;;
60026;SDS011;45891;53.006;6.512;2023-06-04T03:41:57;16.92;;;7.70;;
60026;SDS011;45891;53.006;6.512;2023-06-04T03:44:23;13.60;;;7.15;;
60026;SDS011;45891;53.006;6.512;2023-06-04T03:46:49;17.13;;;7.45;;
60026;SDS011;45891;53.006;6.512;2023-06-04T03:49:15;18.73;;;7.40;;
60026;SDS011;45891;53.006;6.512;2023-06-04T03:51:42;18.33;;;7.50;;
60026;SDS011;45891;53.006;6.512;2023-06-04T03:54:09;16.00;;;7.43;;
60026;SDS011;45891;53.006;6.512;2023-06-04T03:56:35;13.90;;;6.32;;
60026;SDS011;45891;53.006;6.512;2023-06-04T03:59:01;14.80;;;6.88;;
60026;SDS011;45891;53.006;6.512;2023-06-04T04:01:27;19.88;;;7.45;;
60026;SDS011;45891;53.006;6.512;2023-06-04T04:03:54;17.55;;;8.30;;
60026;SDS011;45891;53.006;6.512;2023-06-04T04:06:20;15.15;;;6.30;;
60026;SDS011;45891;53.006;6.512;2023-06-04T04:08:46;20.90;;;7.25;;
60026;SDS011;45891;53.006;6.512;2023-06-04T04:11:14;19.88;;;7.82;;
60026;SDS011;45891;53.006;6.512;2023-06-04T04:13:41;21.50;;;7.47;;
60026;SDS011;45891;53.006;6.512;2023-06-04T04:16:10;18.33;;;9.10;;
60026;SDS011;45891;53.006;6.512;2023-06-04T04:18:36;18.73;;;8.05;;
60026;SDS011;45891;53.006;6.512;2023-06-04T04:21:03;22.58;;;8.82;;
60026;SDS011;45891;53.006;6.512;2023-06-04T04:23:29;15.00;;;7.50;;
60026;SDS011;45891;53.006;6.512;2023-06-04T04:25:59;23.67;;;9.18;;
60026;SDS011;45891;53.006;6.512;2023-06-04T04:28:25;17.27;;;8.73;;
60026;SDS011;45891;53.006;6.512;2023-06-04T04:30:57;18.80;;;8.85;;
60026;SDS011;45891;53.006;6.512;2023-06-04T04:33:25;20.23;;;8.25;;
60026;SDS011;45891;53.006;6.512;2023-06-04T04:35:51;20.33;;;8.98;;
60026;SDS011;45891;53.006;6.512;2023-06-04T04:38:21;28.10;;;9.98;;
60026;SDS011;45891;53.006;6.512;2023-06-04T04:40:49;24.98;;;10.13;;
60026;SDS011;45891;53.006;6.512;2023-06-04T04:43:27;23.80;;;10.10;;
60026;SDS011;45891;53.006;6.512;2023-06-04T04:45:57;25.20;;;9.80;;
60026;SDS011;45891;53.006;6.512;2023-06-04T04:48:23;21.75;;;10.13;;
60026;SDS011;45891;53.006;6.512;2023-06-04T04:50:50;24.45;;;9.50;;
60026;SDS011;45891;53.006;6.512;2023-06-04T04:53:16;23.58;;;10.25;;
60026;SDS011;45891;53.006;6.512;2023-06-04T04:55:42;24.45;;;10.40;;
60026;SDS011;45891;53.006;6.512;2023-06-04T04:58:09;29.42;;;10.82;;
60026;SDS011;45891;53.006;6.512;2023-06-04T05:00:35;20.83;;;9.23;;
60026;SDS011;45891;53.006;6.512;2023-06-04T05:03:01;23.85;;;9.90;;
60026;SDS011;45891;53.006;6.512;2023-06-04T05:05:27;22.30;;;8.50;;
60026;SDS011;45891;53.006;6.512;2023-06-04T05:07:53;21.90;;;8.65;;
60026;SDS011;45891;53.006;6.512;2023-06-04T05:10:19;22.83;;;9.07;;
60026;SDS011;45891;53.006;6.512;2023-06-04T05:12:52;19.77;;;7.82;;
60026;SDS011;45891;53.006;6.512;2023-06-04T05:15:19;20.42;;;7.78;;
60026;SDS011;45891;53.006;6.512;2023-06-04T05:17:46;18.83;;;7.40;;
60026;SDS011;45891;53.006;6.512;2023-06-04T05:20:12;19.63;;;7.50;;
60026;SDS011;45891;53.006;6.512;2023-06-04T05:22:40;20.55;;;7.13;;
60026;SDS011;45891;53.006;6.512;2023-06-04T05:25:06;22.48;;;6.72;;
60026;SDS011;45891;53.006;6.512;2023-06-04T05:27:34;19.42;;;6.60;;
60026;SDS011;45891;53.006;6.512;2023-06-04T05:30:01;18.45;;;6.88;;
60026;SDS011;45891;53.006;6.512;2023-06-04T05:32:28;18.33;;;6.38;;
60026;SDS011;45891;53.006;6.512;2023-06-04T05:34:54;16.42;;;5.95;;
60026;SDS011;45891;53.006;6.512;2023-06-04T05:37:27;14.77;;;5.55;;
60026;SDS011;45891;53.006;6.512;2023-06-04T05:39:55;15.05;;;5.32;;
60026;SDS011;45891;53.006;6.512;2023-06-04T05:42:22;17.83;;;5.95;;
60026;SDS011;45891;53.006;6.512;2023-06-04T05:44:49;17.20;;;5.47;;
60026;SDS011;45891;53.006;6.512;2023-06-04T05:47:16;12.70;;;4.85;;
60026;SDS011;45891;53.006;6.512;2023-06-04T05:49:42;16.48;;;5.35;;
60026;SDS011;45891;53.006;6.512;2023-06-04T05:52:08;15.07;;;4.80;;
60026;SDS011;45891;53.006;6.512;2023-06-04T05:54:34;17.05;;;5.30;;
60026;SDS011;45891;53.006;6.512;2023-06-04T05:57:02;14.85;;;4.32;;
60026;SDS011;45891;53.006;6.512;2023-06-04T05:59:29;15.82;;;4.50;;
60026;SDS011;45891;53.006;6.512;2023-06-04T06:01:56;13.20;;;3.92;;
60026;SDS011;45891;53.006;6.512;2023-06-04T06:04:22;16.45;;;4.45;;
60026;SDS011;45891;53.006;6.512;2023-06-04T06:06:49;15.68;;;4.88;;
60026;SDS011;45891;53.006;6.512;2023-06-04T06:09:15;15.13;;;4.40;;
60026;SDS011;45891;53.006;6.512;2023-06-04T06:11:44;15.00;;;4.00;;
60026;SDS011;45891;53.006;6.512;2023-06-04T06:14:11;14.73;;;4.57;;
60026;SDS011;45891;53.006;6.512;2023-06-04T06:16:37;14.32;;;4.15;;
60026;SDS011;45891;53.006;6.512;2023-06-04T06:19:03;15.80;;;3.90;;
60026;SDS011;45891;53.006;6.512;2023-06-04T06:21:30;16.73;;;3.65;;
60026;SDS011;45891;53.006;6.512;2023-06-04T06:23:56;16.27;;;3.70;;
60026;SDS011;45891;53.006;6.512;2023-06-04T06:26:22;13.48;;;3.40;;
60026;SDS011;45891;53.006;6.512;2023-06-04T06:28:50;11.20;;;3.20;;
60026;SDS011;45891;53.006;6.512;2023-06-04T06:31:16;11.38;;;3.10;;
60026;SDS011;45891;53.006;6.512;2023-06-04T06:33:42;12.00;;;3.22;;
60026;SDS011;45891;53.006;6.512;2023-06-04T06:36:10;13.35;;;3.50;;
60026;SDS011;45891;53.006;6.512;2023-06-04T06:38:39;11.52;;;2.80;;
60026;SDS011;45891;53.006;6.512;2023-06-04T06:41:06;14.05;;;3.28;;
60026;SDS011;45891;53.006;6.512;2023-06-04T06:43:33;11.93;;;3.10;;
60026;SDS011;45891;53.006;6.512;2023-06-04T06:45:59;12.90;;;3.20;;
60026;SDS011;45891;53.006;6.512;2023-06-04T06:48:25;16.08;;;3.67;;
60026;SDS011;45891;53.006;6.512;2023-06-04T06:50:51;12.55;;;3.30;;
60026;SDS011;45891;53.006;6.512;2023-06-04T06:53:18;12.73;;;3.60;;
60026;SDS011;45891;53.006;6.512;2023-06-04T06:55:44;15.02;;;3.60;;
60026;SDS011;45891;53.006;6.512;2023-06-04T06:58:10;15.43;;;3.20;;
60026;SDS011;45891;53.006;6.512;2023-06-04T07:00:36;12.10;;;3.38;;
60026;SDS011;45891;53.006;6.512;2023-06-04T07:03:02;12.32;;;3.30;;
60026;SDS011;45891;53.006;6.512;2023-06-04T07:05:29;17.40;;;3.50;;
60026;SDS011;45891;53.006;6.512;2023-06-04T07:07:56;14.05;;;3.10;;
60026;SDS011;45891;53.006;6.512;2023-06-04T07:10:26;12.98;;;3.00;;
60026;SDS011;45891;53.006;6.512;2023-06-04T07:12:52;13.90;;;2.70;;
60026;SDS011;45891;53.006;6.512;2023-06-04T07:15:19;11.90;;;2.80;;
60026;SDS011;45891;53.006;6.512;2023-06-04T07:17:45;11.00;;;2.65;;
60026;SDS011;45891;53.006;6.512;2023-06-04T07:20:11;11.27;;;2.90;;
60026;SDS011;45891;53.006;6.512;2023-06-04T07:22:37;12.70;;;2.30;;
60026;SDS011;45891;53.006;6.512;2023-06-04T07:25:04;10.93;;;2.30;;
60026;SDS011;45891;53.006;6.512;2023-06-04T07:27:30;12.27;;;2.28;;
60026;SDS011;45891;53.006;6.512;2023-06-04T07:29:57;11.98;;;2.40;;
60026;SDS011;45891;53.006;6.512;2023-06-04T07:32:23;10.70;;;2.13;;
60026;SDS011;45891;53.006;6.512;2023-06-04T07:34:49;10.15;;;2.20;;
60026;SDS011;45891;53.006;6.512;2023-06-04T07:37:15;12.45;;;2.70;;
60026;SDS011;45891;53.006;6.512;2023-06-04T07:39:41;12.20;;;2.58;;
60026;SDS011;45891;53.006;6.512;2023-06-04T07:42:07;11.57;;;2.42;;
60026;SDS011;45891;53.006;6.512;2023-06-04T07:44:33;10.98;;;2.50;;
60026;SDS011;45891;53.006;6.512;2023-06-04T07:47:00;10.45;;;2.30;;
60026;SDS011;45891;53.006;6.512;2023-06-04T07:49:26;10.70;;;2.83;;
60026;SDS011;45891;53.006;6.512;2023-06-04T07:51:53;11.25;;;2.65;;
60026;SDS011;45891;53.006;6.512;2023-06-04T07:54:19;13.48;;;2.63;;
60026;SDS011;45891;53.006;6.512;2023-06-04T07:56:45;12.70;;;3.05;;
60026;SDS011;45891;53.006;6.512;2023-06-04T07:59:11;11.35;;;2.38;;
60026;SDS011;45891;53.006;6.512;2023-06-04T08:01:37;9.18;;;2.20;;
60026;SDS011;45891;53.006;6.512;2023-06-04T08:04:03;9.90;;;2.00;;
60026;SDS011;45891;53.006;6.512;2023-06-04T08:06:29;8.98;;;2.03;;
60026;SDS011;45891;53.006;6.512;2023-06-04T08:08:55;9.80;;;2.20;;
60026;SDS011;45891;53.006;6.512;2023-06-04T08:11:21;11.00;;;2.08;;
60026;SDS011;45891;53.006;6.512;2023-06-04T08:13:50;10.52;;;2.00;;
60026;SDS011;45891;53.006;6.512;2023-06-04T08:16:16;11.63;;;2.33;;
60026;SDS011;45891;53.006;6.512;2023-06-04T08:18:43;8.82;;;2.08;;
60026;SDS011;45891;53.006;6.512;2023-06-04T08:21:09;9.48;;;2.15;;
60026;SDS011;45891;53.006;6.512;2023-06-04T08:23:42;10.25;;;2.05;;
60026;SDS011;45891;53.006;6.512;2023-06-04T08:26:08;9.80;;;1.88;;
60026;SDS011;45891;53.006;6.512;2023-06-04T08:28:34;8.35;;;2.03;;
60026;SDS011;45891;53.006;6.512;2023-06-04T08:31:00;8.43;;;1.80;;
60026;SDS011;45891;53.006;6.512;2023-06-04T08:33:26;10.38;;;1.88;;
60026;SDS011;45891;53.006;6.512;2023-06-04T08:35:53;8.15;;;1.80;;
60026;SDS011;45891;53.006;6.512;2023-06-04T08:38:19;8.17;;;1.70;;
60026;SDS011;45891;53.006;6.512;2023-06-04T08:40:45;7.72;;;1.60;;
60026;SDS011;45891;53.006;6.512;2023-06-04T08:43:17;8.20;;;1.80;;
60026;SDS011;45891;53.006;6.512;2023-06-04T08:45:44;8.63;;;1.98;;
60026;SDS011;45891;53.006;6.512;2023-06-04T08:48:15;8.38;;;1.60;;
60026;SDS011;45891;53.006;6.512;2023-06-04T08:50:45;8.43;;;1.70;;
60026;SDS011;45891;53.006;6.512;2023-06-04T08:53:13;10.70;;;1.88;;
60026;SDS011;45891;53.006;6.512;2023-06-04T08:55:41;10.57;;;2.03;;
60026;SDS011;45891;53.006;6.512;2023-06-04T08:58:09;7.45;;;1.80;;
60026;SDS011;45891;53.006;6.512;2023-06-04T09:00:36;7.63;;;1.83;;
60026;SDS011;45891;53.006;6.512;2023-06-04T09:03:02;9.07;;;2.13;;
60026;SDS011;45891;53.006;6.512;2023-06-04T09:05:29;8.82;;;1.83;;
60026;SDS011;45891;53.006;6.512;2023-06-04T09:07:55;8.63;;;1.90;;
60026;SDS011;45891;53.006;6.512;2023-06-04T09:10:26;9.50;;;2.15;;
60026;SDS011;45891;53.006;6.512;2023-06-04T09:12:56;7.75;;;1.70;;
60026;SDS011;45891;53.006;6.512;2023-06-04T09:15:24;7.43;;;1.88;;
60026;SDS011;45891;53.006;6.512;2023-06-04T09:17:50;7.88;;;1.63;;
60026;SDS011;45891;53.006;6.512;2023-06-04T09:20:23;8.38;;;1.98;;
60026;SDS011;45891;53.006;6.512;2023-06-04T09:22:50;7.10;;;1.83;;
60026;SDS011;45891;53.006;6.512;2023-06-04T09:25:23;8.00;;;2.00;;
60026;SDS011;45891;53.006;6.512;2023-06-04T09:27:50;9.40;;;1.90;;
60026;SDS011;45891;53.006;6.512;2023-06-04T09:30:17;8.10;;;1.83;;
60026;SDS011;45891;53.006;6.512;2023-06-04T09:32:44;8.05;;;1.77;;
60026;SDS011;45891;53.006;6.512;2023-06-04T09:35:12;8.38;;;1.70;;
60026;SDS011;45891;53.006;6.512;2023-06-04T09:37:42;9.70;;;1.98;;
60026;SDS011;45891;53.006;6.512;2023-06-04T09:40:19;7.80;;;1.90;;
60026;SDS011;45891;53.006;6.512;2023-06-04T09:42:45;7.68;;;1.63;;
60026;SDS011;45891;53.006;6.512;2023-06-04T09:45:26;6.43;;;1.50;;
60026;SDS011;45891;53.006;6.512;2023-06-04T09:47:57;7.10;;;1.73;;
60026;SDS011;45891;53.006;6.512;2023-06-04T09:50:27;6.70;;;1.65;;
60026;SDS011;45891;53.006;6.512;2023-06-04T09:52:57;7.43;;;1.55;;
60026;SDS011;45891;53.006;6.512;2023-06-04T09:55:23;8.23;;;1.70;;
60026;SDS011;45891;53.006;6.512;2023-06-04T09:57:51;8.00;;;1.58;;
60026;SDS011;45891;53.006;6.512;2023-06-04T10:00:21;8.63;;;1.67;;
60026;SDS011;45891;53.006;6.512;2023-06-04T10:02:48;7.65;;;1.63;;
60026;SDS011;45891;53.006;6.512;2023-06-04T10:05:21;8.73;;;1.70;;
60026;SDS011;45891;53.006;6.512;2023-06-04T10:07:49;8.50;;;1.70;;
60026;SDS011;45891;53.006;6.512;2023-06-04T10:10:21;8.82;;;1.70;;
60026;SDS011;45891;53.006;6.512;2023-06-04T10:12:57;8.27;;;1.70;;
60026;SDS011;45891;53.006;6.512;2023-06-04T10:15:28;7.93;;;1.52;;
60026;SDS011;45891;53.006;6.512;2023-06-04T10:17:57;8.35;;;1.55;;
60026;SDS011;45891;53.006;6.512;2023-06-04T10:20:24;6.88;;;1.60;;
60026;SDS011;45891;53.006;6.512;2023-06-04T10:22:51;7.15;;;1.50;;
60026;SDS011;45891;53.006;6.512;2023-06-04T10:25:17;8.07;;;1.52;;
60026;SDS011;45891;53.006;6.512;2023-06-04T10:27:44;7.35;;;1.80;;
60026;SDS011;45891;53.006;6.512;2023-06-04T10:30:12;7.38;;;1.50;;
60026;SDS011;45891;53.006;6.512;2023-06-04T10:32:38;8.30;;;1.63;;
60026;SDS011;45891;53.006;6.512;2023-06-04T10:35:06;7.18;;;1.60;;
60026;SDS011;45891;53.006;6.512;2023-06-04T10:37:33;7.00;;;1.50;;
60026;SDS011;45891;53.006;6.512;2023-06-04T10:39:59;6.22;;;1.42;;
60026;SDS011;45891;53.006;6.512;2023-06-04T10:42:26;8.35;;;1.52;;
60026;SDS011;45891;53.006;6.512;2023-06-04T10:45:02;7.63;;;1.63;;
60026;SDS011;45891;53.006;6.512;2023-06-04T10:47:29;5.82;;;1.25;;
60026;SDS011;45891;53.006;6.512;2023-06-04T10:50:06;8.32;;;1.55;;
60026;SDS011;45891;53.006;6.512;2023-06-04T10:52:33;9.18;;;1.70;;
60026;SDS011;45891;53.006;6.512;2023-06-04T10:55:06;7.47;;;1.58;;
60026;SDS011;45891;53.006;6.512;2023-06-04T10:57:34;6.47;;;1.40;;
60026;SDS011;45891;53.006;6.512;2023-06-04T11:00:01;7.25;;;1.50;;
60026;SDS011;45891;53.006;6.512;2023-06-04T11:02:31;8.75;;;1.50;;
60026;SDS011;45891;53.006;6.512;2023-06-04T11:05:00;5.95;;;1.45;;
60026;SDS011;45891;53.006;6.512;2023-06-04T11:07:29;7.28;;;1.52;;
60026;SDS011;45891;53.006;6.512;2023-06-04T11:09:55;5.75;;;1.50;;
60026;SDS011;45891;53.006;6.512;2023-06-04T11:12:21;6.65;;;1.30;;
60026;SDS011;45891;53.006;6.512;2023-06-04T11:14:56;7.40;;;1.52;;
60026;SDS011;45891;53.006;6.512;2023-06-04T11:17:24;7.00;;;1.40;;
60026;SDS011;45891;53.006;6.512;2023-06-04T11:19:50;8.73;;;1.50;;
60026;SDS011;45891;53.006;6.512;2023-06-04T11:22:20;7.22;;;1.50;;
60026;SDS011;45891;53.006;6.512;2023-06-04T11:24:47;7.90;;;1.77;;
60026;SDS011;45891;53.006;6.512;2023-06-04T11:27:14;5.53;;;1.27;;
60026;SDS011;45891;53.006;6.512;2023-06-04T11:29:40;6.72;;;1.60;;
60026;SDS011;45891;53.006;6.512;2023-06-04T11:32:06;6.35;;;1.40;;
60026;SDS011;45891;53.006;6.512;2023-06-04T11:34:32;7.45;;;1.70;;
60026;SDS011;45891;53.006;6.512;2023-06-04T11:37:08;6.88;;;1.50;;
60026;SDS011;45891;53.006;6.512;2023-06-04T11:39:35;6.32;;;1.50;;
60026;SDS011;45891;53.006;6.512;2023-06-04T11:42:07;8.30;;;1.65;;
60026;SDS011;45891;53.006;6.512;2023-06-04T11:44:33;8.30;;;1.60;;
60026;SDS011;45891;53.006;6.512;2023-06-04T11:46:59;7.45;;;1.52;;
60026;SDS011;45891;53.006;6.512;2023-06-04T11:49:25;5.97;;;1.50;;
60026;SDS011;45891;53.006;6.512;2023-06-04T11:51:53;6.45;;;1.55;;
60026;SDS011;45891;53.006;6.512;2023-06-04T11:54:20;7.82;;;1.60;;
60026;SDS011;45891;53.006;6.512;2023-06-04T11:56:51;7.40;;;1.70;;
60026;SDS011;45891;53.006;6.512;2023-06-04T11:59:17;9.27;;;1.73;;
60026;SDS011;45891;53.006;6.512;2023-06-04T12:01:45;7.93;;;1.50;;
60026;SDS011;45891;53.006;6.512;2023-06-04T12:04:15;8.18;;;1.70;;
60026;SDS011;45891;53.006;6.512;2023-06-04T12:06:52;7.32;;;1.50;;
60026;SDS011;45891;53.006;6.512;2023-06-04T12:09:22;7.30;;;1.50;;
60026;SDS011;45891;53.006;6.512;2023-06-04T12:11:59;6.15;;;1.40;;
60026;SDS011;45891;53.006;6.512;2023-06-04T12:14:25;6.63;;;1.58;;
60026;SDS011;45891;53.006;6.512;2023-06-04T12:17:02;7.80;;;1.70;;
60026;SDS011;45891;53.006;6.512;2023-06-04T12:22:02;7.68;;;1.70;;
60026;SDS011;45891;53.006;6.512;2023-06-04T12:24:33;6.55;;;1.55;;
60026;SDS011;45891;53.006;6.512;2023-06-04T12:27:11;6.43;;;1.50;;
60026;SDS011;45891;53.006;6.512;2023-06-04T12:29:37;7.53;;;1.80;;
60026;SDS011;45891;53.006;6.512;2023-06-04T12:34:36;8.05;;;1.50;;
60026;SDS011;45891;53.006;6.512;2023-06-04T12:37:06;6.50;;;1.48;;
60026;SDS011;45891;53.006;6.512;2023-06-04T12:39:33;6.40;;;1.30;;
60026;SDS011;45891;53.006;6.512;2023-06-04T12:42:05;6.80;;;1.60;;
60026;SDS011;45891;53.006;6.512;2023-06-04T12:44:37;8.38;;;1.52;;
60026;SDS011;45891;53.006;6.512;2023-06-04T12:47:04;7.18;;;1.58;;
60026;SDS011;45891;53.006;6.512;2023-06-04T12:49:31;6.00;;;1.48;;
60026;SDS011;45891;53.006;6.512;2023-06-04T12:51:57;5.93;;;1.40;;
60026;SDS011;45891;53.006;6.512;2023-06-04T12:54:24;6.68;;;1.50;;
60026;SDS011;45891;53.006;6.512;2023-06-04T12:56:50;7.78;;;1.70;;
60026;SDS011;45891;53.006;6.512;2023-06-04T12:59:16;8.77;;;1.85;;
60026;SDS011;45891;53.006;6.512;2023-06-04T13:01:42;7.35;;;1.48;;
60026;SDS011;45891;53.006;6.512;2023-06-04T13:04:09;7.70;;;1.48;;
60026;SDS011;45891;53.006;6.512;2023-06-04T13:06:35;8.15;;;1.70;;
60026;SDS011;45891;53.006;6.512;2023-06-04T13:09:02;7.10;;;1.50;;
60026;SDS011;45891;53.006;6.512;2023-06-04T13:11:36;5.47;;;1.40;;
60026;SDS011;45891;53.006;6.512;2023-06-04T13:14:03;8.73;;;1.88;;
60026;SDS011;45891;53.006;6.512;2023-06-04T13:16:29;6.90;;;1.65;;
60026;SDS011;45891;53.006;6.512;2023-06-04T13:18:55;7.85;;;1.70;;
60026;SDS011;45891;53.006;6.512;2023-06-04T13:21:22;8.88;;;1.90;;
60026;SDS011;45891;53.006;6.512;2023-06-04T13:23:48;8.35;;;1.60;;
60026;SDS011;45891;53.006;6.512;2023-06-04T13:26:18;7.05;;;1.55;;
60026;SDS011;45891;53.006;6.512;2023-06-04T13:28:45;7.80;;;1.50;;
60026;SDS011;45891;53.006;6.512;2023-06-04T13:31:12;10.18;;;2.00;;
60026;SDS011;45891;53.006;6.512;2023-06-04T13:33:38;6.07;;;1.40;;
60026;SDS011;45891;53.006;6.512;2023-06-04T13:36:04;7.70;;;1.60;;
60026;SDS011;45891;53.006;6.512;2023-06-04T13:38:31;6.85;;;1.52;;
60026;SDS011;45891;53.006;6.512;2023-06-04T13:40:58;7.57;;;1.70;;
60026;SDS011;45891;53.006;6.512;2023-06-04T13:43:24;13.00;;;1.70;;
60026;SDS011;45891;53.006;6.512;2023-06-04T13:45:50;7.15;;;1.45;;
60026;SDS011;45891;53.006;6.512;2023-06-04T13:48:16;7.53;;;1.80;;
60026;SDS011;45891;53.006;6.512;2023-06-04T13:50:42;7.88;;;1.85;;
60026;SDS011;45891;53.006;6.512;2023-06-04T13:53:09;8.18;;;1.45;;
60026;SDS011;45891;53.006;6.512;2023-06-04T13:55:35;7.60;;;1.67;;
60026;SDS011;45891;53.006;6.512;2023-06-04T13:58:01;6.20;;;1.65;;
60026;SDS011;45891;53.006;6.512;2023-06-04T14:00:27;6.95;;;1.70;;
60026;SDS011;45891;53.006;6.512;2023-06-04T14:02:55;8.15;;;1.60;;
60026;SDS011;45891;53.006;6.512;2023-06-04T14:05:22;6.93;;;1.60;;
60026;SDS011;45891;53.006;6.512;2023-06-04T14:07:50;7.07;;;1.60;;
60026;SDS011;45891;53.006;6.512;2023-06-04T14:10:16;7.25;;;1.60;;
60026;SDS011;45891;53.006;6.512;2023-06-04T14:12:42;7.25;;;1.60;;
60026;SDS011;45891;53.006;6.512;2023-06-04T14:15:10;10.93;;;1.83;;
60026;SDS011;45891;53.006;6.512;2023-06-04T14:17:37;6.07;;;1.63;;
60026;SDS011;45891;53.006;6.512;2023-06-04T14:20:04;6.68;;;1.50;;
60026;SDS011;45891;53.006;6.512;2023-06-04T14:22:36;8.00;;;1.85;;
60026;SDS011;45891;53.006;6.512;2023-06-04T14:25:03;8.48;;;1.67;;
60026;SDS011;45891;53.006;6.512;2023-06-04T14:27:31;6.95;;;1.80;;
60026;SDS011;45891;53.006;6.512;2023-06-04T14:29:58;6.97;;;1.88;;
60026;SDS011;45891;53.006;6.512;2023-06-04T14:32:24;7.80;;;1.75;;
60026;SDS011;45891;53.006;6.512;2023-06-04T14:34:50;7.57;;;1.80;;
60026;SDS011;45891;53.006;6.512;2023-06-04T14:37:17;7.07;;;1.75;;
60026;SDS011;45891;53.006;6.512;2023-06-04T14:39:45;7.85;;;1.70;;
60026;SDS011;45891;53.006;6.512;2023-06-04T14:42:11;8.15;;;1.70;;
60026;SDS011;45891;53.006;6.512;2023-06-04T14:44:38;10.57;;;1.88;;
60026;SDS011;45891;53.006;6.512;2023-06-04T14:47:04;7.75;;;1.70;;
60026;SDS011;45891;53.006;6.512;2023-06-04T14:49:31;7.18;;;1.70;;
60026;SDS011;45891;53.006;6.512;2023-06-04T14:51:57;7.93;;;1.90;;